Time;durP1;ratioP1;P1;durP2;ratioP2;P2;SDS_P1;SDS_P2;PMS_P1;PMS_P2;Temp;Humidity;BMP_temperature;BMP_pressure;BME280_temperature;BME280_humidity;BME280_pressure;Samples;Min_cycle;Max_cycle;Signal;HPM_P1;HPM_P2
2021/11/01 00:00:48;;;;;;;70.40;30.80;;;;;;;6.79;63.98;100142.48;27236;1216;3051507;-70
2021/11/01 00:03:17;;;;;;;68.00;30.70;;;;;;;6.78;64.04;100142.35;27221;1216;3027139;-67
2021/11/01 00:05:47;;;;;;;73.90;32.00;;;;;;;6.77;64.03;100138.20;27220;1216;3025703;-66
2021/11/01 00:08:16;;;;;;;65.80;31.70;;;;;;;6.74;64.26;100136.74;27259;1216;3052140;-67
2021/11/01 00:10:45;;;;;;;76.70;33.30;;;;;;;6.75;64.25;100132.20;27250;1216;3029135;-71
2021/11/01 00:13:15;;;;;;;71.80;32.80;;;;;;;6.73;64.34;100133.45;27247;1216;3050994;-70
2021/11/01 00:15:44;;;;;;;68.70;34.10;;;;;;;6.69;64.41;100135.86;27228;1216;3026043;-66
2021/11/01 00:18:16;;;;;;;74.00;31.80;;;;;;;6.66;64.50;100131.46;27237;1216;3070416;-70
2021/11/01 00:20:45;;;;;;;79.90;34.40;;;;;;;6.65;64.36;100130.26;27228;1216;3028387;-66
2021/11/01 00:23:14;;;;;;;66.50;32.80;;;;;;;6.63;64.51;100130.67;27260;1216;3026436;-67
2021/11/01 00:25:59;;;;;;;84.90;33.90;;;;;;;6.60;64.55;100130.77;27191;1216;3071153;-66
2021/11/01 00:28:28;;;;;;;80.50;34.90;;;;;;;6.55;64.56;100128.15;27259;1216;3026404;-67
2021/11/01 00:30:58;;;;;;;77.90;34.90;;;;;;;6.51;64.61;100125.16;27245;1216;3050021;-69
2021/11/01 00:33:27;;;;;;;80.50;34.40;;;;;;;6.46;64.73;100126.51;27222;1216;3025990;-70
2021/11/01 00:35:56;;;;;;;68.90;31.40;;;;;;;6.47;64.53;100125.11;27318;1216;3026563;-68
2021/11/01 00:38:25;;;;;;;80.00;33.80;;;;;;;6.44;64.81;100120.16;27349;1216;3051234;-69
2021/11/01 00:40:54;;;;;;;81.10;34.00;;;;;;;6.40;65.04;100119.60;27243;1216;3025969;-70
2021/11/01 00:43:25;;;;;;;79.40;33.30;;;;;;;6.33;65.33;100120.35;27275;1216;3054683;-68
2021/11/01 00:45:54;;;;;;;76.70;33.40;;;;;;;6.36;65.07;100118.50;27284;1216;3026513;-68
2021/11/01 00:48:23;;;;;;;76.20;34.70;;;;;;;6.36;65.28;100115.56;27281;1216;3029007;-70
2021/11/01 00:50:51;;;;;;;70.10;32.30;;;;;;;6.32;65.38;100113.39;27232;1216;3050997;-71
2021/11/01 00:53:23;;;;;;;67.50;31.90;;;;;;;6.30;65.50;100112.63;27244;1216;3028138;-68
2021/11/01 00:55:52;;;;;;;70.20;31.20;;;;;;;6.25;65.79;100111.73;27239;1216;3049920;-66
2021/11/01 00:58:21;;;;;;;76.90;32.60;;;;;;;6.26;65.37;100109.61;27279;1216;3026541;-67
2021/11/01 01:00:50;;;;;;;69.80;31.90;;;;;;;6.29;65.48;100102.91;27212;1216;3058692;-70
2021/11/01 01:03:20;;;;;;;72.40;32.90;;;;;;;6.27;65.66;100105.22;27198;1216;3026485;-71
2021/11/01 01:06:02;;;;;;;75.40;31.10;;;;;;;6.23;65.97;100105.70;27241;1216;3054695;-68
2021/11/01 01:08:31;;;;;;;67.50;30.90;;;;;;;6.15;66.22;100103.00;27255;1216;3026526;-67
2021/11/01 01:11:00;;;;;;;73.40;32.10;;;;;;;6.10;66.53;100100.02;27204;1216;3025786;-68
2021/11/01 01:14:08;;;;;;;69.80;32.00;;;;;;;6.08;66.50;100097.48;27208;1216;3054906;-68
2021/11/01 01:16:45;;;;;;;65.60;30.40;;;;;;;6.08;66.53;100095.39;27235;1216;3052129;-71
2021/11/01 01:19:20;;;;;;;69.40;30.90;;;;;;;6.06;66.56;100094.61;27262;1216;3069783;-67
2021/11/01 01:24:37;;;;;;;74.60;33.20;;;;;;;5.95;67.22;100089.18;27228;1216;3054777;-70
2021/11/01 01:27:06;;;;;;;71.30;32.10;;;;;;;5.90;67.17;100091.74;27227;1216;3026223;-69
2021/11/01 01:29:35;;;;;;;76.90;30.60;;;;;;;5.90;67.06;100085.49;27221;1216;3048196;-66
2021/11/01 01:32:06;;;;;;;76.20;30.90;;;;;;;5.87;67.19;100088.04;27266;1216;3026108;-68
2021/11/01 01:34:35;;;;;;;60.50;25.70;;;;;;;5.88;67.39;100085.89;27204;1216;3067000;-69
2021/11/01 01:37:04;;;;;;;62.60;28.20;;;;;;;6.49;65.98;100081.52;27234;1216;3026447;-66
2021/11/01 01:39:33;;;;;;;65.10;28.50;;;;;;;7.16;64.03;100079.02;27211;1216;3052974;-64
2021/11/01 01:42:02;;;;;;;71.00;30.30;;;;;;;7.30;63.41;100077.95;27219;1216;3026052;-67
2021/11/01 01:44:32;;;;;;;71.80;28.80;;;;;;;7.24;63.23;100077.86;27226;1208;3025970;-66
2021/11/01 01:47:01;;;;;;;68.00;31.70;;;;;;;7.06;63.47;100075.00;27195;1216;3051062;-66
2021/11/01 01:49:30;;;;;;;73.20;31.70;;;;;;;6.90;63.89;100070.55;27231;1216;3026066;-66
2021/11/01 01:51:59;;;;;;;66.40;31.30;;;;;;;6.77;64.26;100070.80;27241;1216;3051741;-68
2021/11/01 01:54:27;;;;;;;68.90;29.60;;;;;;;6.63;64.60;100076.35;27187;1216;3026439;-74
2021/11/01 01:56:57;;;;;;;69.80;30.70;;;;;;;6.50;65.23;100072.27;27190;1216;3048289;-66
2021/11/01 01:59:26;;;;;;;72.60;30.80;;;;;;;6.39;65.52;100073.35;27220;1216;3028207;-70
2021/11/01 02:01:56;;;;;;;71.80;30.60;;;;;;;6.30;65.86;100067.71;27250;1216;3026780;-68
2021/11/01 02:04:26;;;;;;;65.90;28.30;;;;;;;6.19;66.43;100066.86;27193;1216;3026495;-68
2021/11/01 02:07:13;;;;;;;63.20;30.00;;;;;;;6.07;66.81;100065.67;27196;1217;3025754;-72
2021/11/01 02:10:29;;;;;;;63.10;30.00;;;;;;;5.99;67.44;100064.02;27253;1216;3054729;-65
2021/11/01 02:13:14;;;;;;;63.30;28.10;;;;;;;5.93;67.78;100061.57;27208;1216;3051498;-70
2021/11/01 02:15:45;;;;;;;66.20;28.60;;;;;;;5.92;67.63;100064.06;27246;1216;3058639;-69
2021/11/01 02:18:14;;;;;;;68.60;27.00;;;;;;;5.85;68.20;100062.51;27200;1216;3027391;-68
2021/11/01 02:21:02;;;;;;;62.40;29.70;;;;;;;5.85;68.03;100058.01;27212;1216;3025840;-70
2021/11/01 02:23:36;;;;;;;62.90;29.70;;;;;;;5.81;68.29;100058.46;27228;1216;3056838;-67
2021/11/01 02:26:08;;;;;;;;;;;;;;;5.81;68.50;100058.33;27215;1216;3051990;-69
2021/11/01 02:28:38;;;;;;;59.70;25.00;;;;;;;6.35;67.39;100055.20;27266;1216;3026139;-73
2021/11/01 02:31:10;;;;;;;61.10;26.40;;;;;;;7.16;65.07;100050.61;27263;1216;3026086;-69
2021/11/01 02:33:39;;;;;;;63.10;28.20;;;;;;;7.38;64.06;100044.05;27275;1216;3028505;-69
2021/11/01 02:36:08;;;;;;;59.20;27.60;;;;;;;7.23;64.04;100044.05;27223;1216;3026204;-63
2021/11/01 02:38:37;;;;;;;63.80;28.30;;;;;;;7.10;64.40;100049.80;27204;1217;3049942;-70
2021/11/01 02:41:22;;;;;;;63.70;28.60;;;;;;;6.98;64.69;100049.02;27225;1216;3026040;-70
2021/11/01 02:43:57;;;;;;;60.00;26.20;;;;;;;6.75;65.36;100050.85;27270;1216;3055257;-68
2021/11/01 02:46:27;;;;;;;58.50;28.30;;;;;;;6.64;65.56;100057.33;27187;1216;3053450;-69
2021/11/01 02:48:56;;;;;;;63.80;28.40;;;;;;;6.49;66.17;100052.98;27201;1216;3027305;-64
2021/11/01 02:51:26;;;;;;;63.10;27.00;;;;;;;6.37;66.61;100055.11;27242;1208;3025958;-71
2021/11/01 02:53:57;;;;;;;60.80;26.50;;;;;;;6.29;66.78;100057.33;27234;1216;3049941;-69
2021/11/01 02:56:26;;;;;;;54.20;26.60;;;;;;;6.24;67.15;100055.39;27212;1216;3026965;-66
2021/11/01 02:58:55;;;;;;;64.40;27.40;;;;;;;6.18;67.60;100057.83;27234;1216;3026634;-66
2021/11/01 03:01:24;;;;;;;62.00;27.10;;;;;;;6.13;67.76;100054.01;27224;1216;3050639;-69
2021/11/01 03:03:52;;;;;;;59.80;27.10;;;;;;;6.06;68.27;100049.05;27178;1216;3027308;-64
2021/11/01 03:06:27;;;;;;;60.60;26.40;;;;;;;6.02;68.04;100045.49;27233;1216;3052059;-72
2021/11/01 03:08:56;;;;;;;59.90;26.60;;;;;;;6.02;68.04;100045.84;27265;1216;3052969;-69
2021/11/01 03:11:25;;;;;;;61.30;27.90;;;;;;;6.00;68.07;100044.33;27214;1216;3028089;-68
2021/11/01 03:13:54;;;;;;;58.70;27.10;;;;;;;5.97;68.04;100040.45;27242;1216;3054814;-69
2021/11/01 03:16:24;;;;;;;48.90;23.30;;;;;;;5.88;68.65;100036.01;27219;1210;3025952;-69
2021/11/01 03:19:08;;;;;;;56.90;24.30;;;;;;;6.43;67.90;100036.83;27208;1216;3049185;-67
2021/11/01 03:21:41;;;;;;;55.80;24.40;;;;;;;7.02;65.93;100032.67;27261;1216;3053024;-70
2021/11/01 03:24:11;;;;;;;52.30;24.20;;;;;;;7.04;65.64;100031.89;27241;1216;3025633;-70
2021/11/01 03:26:41;;;;;;;57.70;25.70;;;;;;;6.87;65.90;100032.50;27234;1216;3028029;-66
2021/11/01 03:29:10;;;;;;;60.10;23.90;;;;;;;6.67;66.54;100027.30;27231;1216;3027071;-72
2021/11/01 03:31:40;;;;;;;59.90;25.70;;;;;;;6.50;66.95;100027.73;27207;1216;3026052;-65
2021/11/01 03:34:09;;;;;;;59.50;25.30;;;;;;;6.41;67.22;100019.34;27263;1216;3026882;-70
2021/11/01 03:36:38;;;;;;;60.50;24.40;;;;;;;6.27;67.86;100020.32;27217;1217;3026544;-67
2021/11/01 03:39:10;;;;;;;54.90;24.80;;;;;;;6.19;67.65;100019.75;27259;1216;3054436;-68
2021/11/01 03:41:41;;;;;;;67.30;27.10;;;;;;;6.03;68.73;100016.95;27195;1216;3026184;-64
2021/11/01 03:44:17;;;;;;;59.10;24.50;;;;;;;5.90;69.27;100009.69;27286;1216;3026114;-71
2021/11/01 03:46:56;;;;;;;62.80;25.80;;;;;;;5.88;69.16;100006.44;27233;1216;3049388;-67
2021/11/01 03:49:27;;;;;;;57.90;25.70;;;;;;;5.83;69.38;100008.67;27240;1216;3051329;-67
2021/11/01 03:54:28;;;;;;;44.20;20.30;;;;;;;5.84;69.18;100011.26;27216;1216;3026125;-67
2021/11/01 03:56:58;;;;;;;55.70;23.40;;;;;;;6.43;68.54;100009.48;27247;1216;3026426;-71
2021/11/01 03:59:27;;;;;;;49.00;21.50;;;;;;;7.07;66.83;100001.29;27243;1216;3049588;-71
2021/11/01 04:01:56;;;;;;;57.60;23.90;;;;;;;7.20;65.91;99995.93;27264;1208;3026377;-66
2021/11/01 04:04:25;;;;;;;46.60;23.30;;;;;;;7.08;66.07;99995.86;27213;1217;3027232;-71
2021/11/01 04:06:56;;;;;;;51.50;23.60;;;;;;;6.93;66.53;99994.65;27228;1216;3053297;-65
2021/11/01 04:09:27;;;;;;;50.70;24.40;;;;;;;6.83;66.57;99995.20;27198;1216;3027937;-67
2021/11/01 04:11:56;;;;;;;54.20;22.10;;;;;;;6.68;67.15;99996.29;27253;1216;3026311;-69
2021/11/01 04:14:27;;;;;;;50.00;24.90;;;;;;;6.54;67.79;99999.89;27262;1216;3050591;-66
2021/11/01 04:16:59;;;;;;;52.20;23.90;;;;;;;6.38;68.42;99999.77;27382;1217;3025914;-66
2021/11/01 04:19:35;;;;;;;45.80;22.50;;;;;;;6.26;68.77;99997.23;27532;1216;3050961;-66
2021/11/01 04:22:04;;;;;;;44.70;21.50;;;;;;;6.22;68.67;99997.70;27561;1216;3051128;-65
2021/11/01 04:24:36;;;;;;;52.40;23.20;;;;;;;6.17;69.06;99998.23;27547;1216;3025951;-63
2021/11/01 04:27:06;;;;;;;53.30;23.50;;;;;;;6.08;69.57;99995.05;27515;1210;3026436;-72
2021/11/01 04:29:35;;;;;;;41.90;18.90;;;;;;;6.05;69.61;99994.46;27492;1216;3026073;-65
2021/11/01 04:32:13;;;;;;;49.70;21.40;;;;;;;6.62;68.93;99995.09;27541;1216;3053742;-67
2021/11/01 04:34:47;;;;;;;47.40;21.70;;;;;;;7.21;66.79;99986.48;27524;1216;3055721;-68
2021/11/01 04:37:17;;;;;;;49.80;22.40;;;;;;;7.22;66.34;99989.73;27458;1216;3049508;-63
2021/11/01 04:53:45;;;;;;;45.30;21.50;;;;;;;6.45;68.60;99993.95;27235;1216;3053814;-70
2021/11/01 04:56:20;;;;;;;44.70;22.80;;;;;;;6.33;69.21;99999.61;27261;1216;3025770;-70
2021/11/01 04:58:49;;;;;;;68.60;27.00;;;;;;;6.28;69.26;100001.15;27247;1216;3048892;-73
2021/11/01 05:01:24;;;;;;;49.80;22.60;;;;;;;6.22;69.40;100000.14;27256;1216;3025673;-68
2021/11/01 05:03:56;;;;;;;48.90;21.00;;;;;;;6.08;70.66;99993.46;27253;1216;3059246;-73
2021/11/01 05:06:26;;;;;;;46.10;21.40;;;;;;;6.66;69.44;99987.98;27240;1216;3027383;-69
2021/11/01 05:09:07;;;;;;;45.40;20.80;;;;;;;7.17;67.50;99980.35;27253;1216;3026134;-68
2021/11/01 05:11:55;;;;;;;49.80;21.10;;;;;;;7.33;66.74;99980.42;27246;1216;3053944;-69
2021/11/01 05:20:04;;;;;;;46.70;20.70;;;;;;;6.91;67.75;99973.48;27260;1217;3052477;-66
2021/11/01 05:25:11;;;;;;;51.20;22.10;;;;;;;6.68;68.53;99981.98;27302;1216;3026624;-65
2021/11/01 05:35:40;;;;;;;50.90;23.30;;;;;;;6.37;70.13;99981.85;27248;1217;3070888;-68
2021/11/01 05:38:10;;;;;;;43.50;18.70;;;;;;;6.36;70.64;99980.70;27257;1216;3026022;-72
2021/11/01 05:40:39;;;;;;;45.60;20.70;;;;;;;6.99;69.22;99977.02;27267;1216;3026245;-69
2021/11/01 05:43:08;;;;;;;48.00;18.60;;;;;;;7.63;67.13;99974.02;27203;1216;3070298;-68
2021/11/01 05:45:37;;;;;;;48.60;21.30;;;;;;;7.71;66.34;99974.93;27251;1217;3026499;-66
2021/11/01 05:48:06;;;;;;;40.90;20.60;;;;;;;7.65;66.41;99976.59;27242;1217;3051048;-66
2021/11/01 05:50:37;;;;;;;47.30;21.50;;;;;;;7.49;66.82;99975.63;27209;1216;3026046;-69
2021/11/01 05:53:09;;;;;;;47.20;22.60;;;;;;;7.36;67.25;99975.45;27276;1218;3028078;-69
2021/11/01 06:03:37;;;;;;;49.90;22.40;;;;;;;7.11;68.44;99981.79;27234;1216;3054060;-71
2021/11/01 06:14:16;;;;;;;38.00;18.50;;;;;;;7.11;69.27;99975.70;27219;1217;3052140;-72
2021/11/01 06:16:47;;;;;;;40.70;19.00;;;;;;;7.85;67.47;99978.89;27252;1218;3026573;-69
2021/11/01 06:19:16;;;;;;;47.60;19.70;;;;;;;8.54;65.09;99976.70;27243;1216;3025731;-69
2021/11/01 06:21:48;;;;;;;46.90;22.50;;;;;;;8.66;64.44;99969.88;27227;1218;3054377;-72
2021/11/01 06:27:10;;;;;;;59.10;22.40;;;;;;;8.62;64.49;99970.58;27222;1217;3071327;-71
2021/11/01 06:40:39;;;;;;;53.20;24.40;;;;;;;8.23;66.12;99985.67;27232;1217;3051884;-67
2021/11/01 06:57:17;;;;;;;60.70;25.00;;;;;;;8.05;68.45;99969.34;27215;1217;3068361;-75
2021/11/01 07:19:59;;;;;;;43.10;20.10;;;;;;;8.37;70.52;99972.18;27229;1216;3026461;-65
2021/11/01 07:38:32;;;;;;;52.00;22.10;;;;;;;9.08;68.27;99950.01;27255;1217;3052557;-74
2021/11/01 09:20:13;;;;;;;57.20;27.10;;;;;;;10.56;64.75;99858.60;27265;1216;3053188;-69
2021/11/01 09:36:20;;;;;;;58.70;25.60;;;;;;;11.35;62.59;99843.52;27239;1216;3058510;-71
2021/11/01 09:41:25;;;;;;;61.50;27.70;;;;;;;11.47;62.09;99837.05;27311;1215;3055194;-67
2021/11/01 09:43:58;;;;;;;58.80;25.50;;;;;;;11.59;61.71;99838.65;27315;1216;3026131;-69
2021/11/01 09:46:29;;;;;;;58.10;25.20;;;;;;;11.68;61.38;99835.50;27230;1216;3026199;-68
2021/11/01 09:49:13;;;;;;;54.00;22.10;;;;;;;11.80;60.96;99830.73;27270;1216;3026889;-68
2021/11/01 09:51:50;;;;;;;54.60;21.90;;;;;;;11.78;60.86;99829.79;27196;1216;3054288;-67
2021/11/01 09:54:22;;;;;;;66.20;25.40;;;;;;;11.85;60.84;99834.64;27388;1219;3052280;-70
2021/11/01 09:59:56;;;;;;;59.60;24.60;;;;;;;11.95;60.57;99829.14;27230;1222;3049765;-69
2021/11/01 10:02:25;;;;;;;56.00;22.20;;;;;;;11.96;60.51;99828.40;27220;1215;3028170;-65
2021/11/01 10:04:55;;;;;;;56.70;24.90;;;;;;;11.90;60.57;99818.19;27215;1216;3054736;-73
2021/11/01 10:07:30;;;;;;;54.40;24.70;;;;;;;11.99;60.34;99813.11;27243;1209;3026276;-67
2021/11/01 10:10:02;;;;;;;54.30;25.90;;;;;;;11.98;60.64;99803.03;27296;1216;3054938;-70
2021/11/01 10:12:35;;;;;;;58.00;26.70;;;;;;;12.12;60.19;99792.30;27217;1216;3026268;-68
2021/11/01 10:18:14;;;;;;;50.70;24.80;;;;;;;12.32;59.23;99772.63;27259;1215;3048418;-74
2021/11/01 10:20:58;;;;;;;61.10;27.10;;;;;;;12.38;59.24;99767.48;27253;1215;3054190;-71
2021/11/01 10:23:30;;;;;;;71.00;28.30;;;;;;;12.42;59.31;99770.27;27235;1216;3052154;-73
2021/11/01 10:26:12;;;;;;;52.80;22.70;;;;;;;12.51;58.79;99768.27;27209;1216;3028422;-65
2021/11/01 10:28:53;;;;;;;49.90;20.80;;;;;;;12.59;58.50;99762.64;27209;1215;3049480;-72
2021/11/01 10:31:24;;;;;;;51.70;20.50;;;;;;;12.53;58.63;99759.34;27229;1216;3052796;-74
2021/11/01 10:34:04;;;;;;;43.00;19.90;;;;;;;12.54;58.50;99762.77;27270;1215;3026455;-68
2021/11/01 10:36:35;;;;;;;44.60;19.80;;;;;;;12.59;58.65;99758.63;27252;1218;3070652;-71
2021/11/01 10:39:13;;;;;;;40.70;19.40;;;;;;;12.73;58.10;99749.10;27270;1216;3026075;-69
2021/11/01 10:41:56;;;;;;;46.90;20.60;;;;;;;12.71;57.99;99740.11;27269;1216;3052114;-70
2021/11/01 11:13:10;;;;;;;51.90;21.70;;;;;;;13.30;56.28;99719.67;27286;1217;3051966;-68
2021/11/01 11:15:40;;;;;;;46.00;19.70;;;;;;;13.34;56.17;99716.44;27242;1218;3052986;-73
2021/11/01 11:18:50;;;;;;;49.60;22.20;;;;;;;13.34;55.96;99715.54;27271;1219;3052093;-75
2021/11/01 11:29:53;;;;;;;45.40;18.80;;;;;;;13.53;55.93;99694.36;27244;1217;3053317;-73
2021/11/01 11:41:02;;;;;;;47.60;19.60;;;;;;;13.68;55.45;99693.73;27267;1218;3051008;-71
2021/11/01 11:49:09;;;;;;;46.20;21.00;;;;;;;13.80;55.03;99690.43;27246;1217;3051445;-70
2021/11/01 11:51:38;;;;;;;45.50;20.90;;;;;;;13.87;54.90;99696.95;27237;1217;3025886;-65
2021/11/01 11:54:08;;;;;;;50.30;22.30;;;;;;;13.96;54.51;99692.98;27275;1216;3025598;-76
2021/11/01 11:56:40;;;;;;;51.00;23.40;;;;;;;14.10;53.91;99690.20;27265;1215;3028828;-71
2021/11/01 11:59:12;;;;;;;51.40;21.50;;;;;;;14.09;53.86;99685.54;27255;1209;3025606;-73
2021/11/01 12:01:50;;;;;;;50.80;21.40;;;;;;;14.13;53.83;99689.61;27207;1217;3053028;-73
2021/11/01 12:04:32;;;;;;;41.20;21.70;;;;;;;14.22;53.39;99690.95;27240;1219;3067996;-65
2021/11/01 12:07:03;;;;;;;56.40;26.50;;;;;;;14.22;53.25;99691.27;27280;1217;3051397;-73
2021/11/01 12:09:46;;;;;;;59.80;28.10;;;;;;;14.25;53.40;99690.05;27286;1217;3026078;-67
2021/11/01 12:17:24;;;;;;;50.50;21.90;;;;;;;14.30;53.35;99689.83;27256;1217;3052276;-67
2021/11/01 12:20:07;;;;;;;47.10;21.90;;;;;;;14.29;53.44;99692.41;27277;1219;3052439;-71
2021/11/01 12:22:40;;;;;;;60.50;22.60;;;;;;;14.37;53.29;99693.77;27230;1219;3061238;-71
2021/11/01 12:25:13;;;;;;;62.00;23.30;;;;;;;14.44;53.30;99696.40;27206;1217;3052157;-70
2021/11/01 12:27:45;;;;;;;59.60;25.00;;;;;;;14.53;52.89;99693.64;27272;1219;3026528;-70
2021/11/01 12:30:18;;;;;;;63.60;27.40;;;;;;;14.55;52.77;99692.81;27241;1218;3025980;-68
2021/11/01 12:32:49;;;;;;;70.40;26.50;;;;;;;14.54;53.01;99693.04;27206;1219;3070713;-66
2021/11/01 12:35:27;;;;;;;59.50;23.90;;;;;;;14.58;52.88;99690.27;27247;1218;3028789;-73
2021/11/01 12:38:02;;;;;;;55.00;24.30;;;;;;;14.52;52.99;99689.09;27252;1218;3053665;-69
2021/11/01 12:57:42;;;;;;;59.20;25.70;;;;;;;14.30;53.69;99669.58;27184;1220;3052267;-70
2021/11/01 13:00:12;;;;;;;58.00;25.20;;;;;;;14.30;53.63;99671.84;27222;1219;3026289;-69
2021/11/01 13:02:46;;;;;;;53.80;25.50;;;;;;;14.28;53.71;99671.85;28143;1210;3026750;-71
2021/11/01 13:05:18;;;;;;;57.70;24.70;;;;;;;14.18;53.81;99671.84;27532;1218;3048432;-68
2021/11/01 13:08:01;;;;;;;59.80;26.20;;;;;;;14.18;53.94;99664.09;27876;1218;3026285;-71
2021/11/01 13:18:21;;;;;;;50.50;24.00;;;;;;;14.27;53.88;99645.46;27260;1216;3026277;-69
2021/11/01 13:20:58;;;;;;;46.90;22.60;;;;;;;14.18;54.29;99642.43;27221;1217;3050654;-63
2021/11/01 13:23:32;;;;;;;52.30;23.40;;;;;;;14.13;54.48;99638.93;27237;1219;3067781;-73
2021/11/01 13:26:19;;;;;;;47.10;23.80;;;;;;;14.05;54.89;99639.13;27315;1217;3049106;-70
2021/11/01 13:37:14;;;;;;;43.60;24.20;;;;;;;13.61;56.46;99625.53;27217;1219;3049798;-68
2021/11/01 13:39:44;;;;;;;61.90;26.40;;;;;;;13.52;56.57;99620.17;27231;1219;3053945;-72
2021/11/01 13:42:15;;;;;;;51.50;25.70;;;;;;;13.46;56.60;99629.05;27199;1217;3026729;-64
2021/11/01 13:44:45;;;;;;;59.90;28.10;;;;;;;13.49;56.79;99631.48;27227;1217;3026360;-69
2021/11/01 13:47:16;;;;;;;64.80;27.70;;;;;;;13.41;57.05;99636.83;27277;1217;3028257;-71
2021/11/01 13:49:48;;;;;;;72.00;30.60;;;;;;;13.27;57.44;99633.89;27278;1217;3026610;-66
2021/11/01 13:55:07;;;;;;;73.10;30.30;;;;;;;13.08;57.85;99634.64;27254;1215;3056593;-73
2021/11/01 13:58:01;;;;;;;70.00;28.30;;;;;;;12.98;58.30;99634.08;27231;1216;3048823;-66
2021/11/01 14:16:59;;;;;;;73.40;29.10;;;;;;;12.51;59.64;99621.36;27257;1215;3058831;-71
2021/11/01 14:28:24;;;;;;;58.10;30.40;;;;;;;12.19;60.83;99623.49;27240;1216;3070578;-67
2021/11/01 14:56:12;;;;;;;69.10;32.80;;;;;;;11.72;62.18;99597.48;27236;1216;3051303;-69
2021/11/01 15:12:22;;;;;;;81.70;38.90;;;;;;;11.49;62.65;99582.23;27191;1215;3070403;-69
2021/11/01 15:14:57;;;;;;;76.60;37.10;;;;;;;11.42;62.79;99590.55;27224;1215;3047836;-66
2021/11/01 16:18:19;;;;;;;76.30;36.70;;;;;;;10.76;64.33;99605.77;27239;1216;3026181;-68
2021/11/01 16:20:48;;;;;;;74.20;32.70;;;;;;;10.75;64.17;99611.94;27204;1209;3026163;-72
2021/11/01 16:23:33;;;;;;;69.80;33.10;;;;;;;10.80;63.96;99616.08;27261;1217;3027395;-68
2021/11/01 16:26:12;;;;;;;;;;;;;;;10.78;64.07;99612.32;27237;1217;3068426;-68
2021/11/01 16:28:41;;;;;;;66.40;31.40;;;;;;;10.75;64.14;99615.29;27247;1217;3049227;-66
2021/11/01 16:31:24;;;;;;;77.40;34.00;;;;;;;10.76;64.12;99615.41;27238;1217;3028197;-72
2021/11/01 16:33:58;;;;;;;64.00;33.50;;;;;;;10.73;64.19;99616.42;27212;1217;3051661;-69
2021/11/01 16:39:14;;;;;;;85.00;35.30;;;;;;;10.72;64.09;99607.74;27239;1217;3049519;-71
2021/11/01 16:41:45;;;;;;;72.20;34.60;;;;;;;10.69;64.07;99605.11;27257;1217;3027737;-68
2021/11/01 16:44:32;;;;;;;73.90;34.00;;;;;;;10.71;63.85;99601.83;27211;1217;3050409;-71
2021/11/01 16:47:01;;;;;;;69.50;32.70;;;;;;;10.71;63.81;99599.73;27225;1217;3070613;-67
2021/11/01 16:49:31;;;;;;;70.10;35.20;;;;;;;10.66;64.00;99601.09;27241;1217;3026196;-69
2021/11/01 16:52:06;;;;;;;79.70;34.60;;;;;;;10.65;63.84;99598.52;27236;1217;3054907;-69
2021/11/01 16:54:36;;;;;;;77.10;34.20;;;;;;;10.67;63.84;99592.59;27219;1217;3070501;-75
2021/11/01 17:02:45;;;;;;;78.10;35.10;;;;;;;10.60;63.78;99594.78;27261;1217;3052652;-72
2021/11/01 18:51:40;;;;;;;98.80;38.20;;;;;;;10.18;64.55;99499.45;27260;1216;3053379;-66
2021/11/01 18:54:18;;;;;;;101.40;42.50;;;;;;;10.80;62.33;99493.06;27231;1216;3028053;-76
2021/11/01 18:56:48;;;;;;;99.00;42.10;;;;;;;10.85;61.92;99497.33;27217;1216;3067960;-71
2021/11/01 18:59:18;;;;;;;105.10;43.50;;;;;;;10.79;62.02;99500.45;27236;1216;3026438;-72
2021/11/01 19:02:36;;;;;;;101.50;43.10;;;;;;;10.56;62.42;99496.91;27231;1216;3026192;-69
2021/11/01 19:05:16;;;;;;;109.10;44.70;;;;;;;10.35;62.92;99500.46;27212;1216;3054430;-72
2021/11/01 19:07:58;;;;;;;97.90;43.30;;;;;;;10.14;63.58;99497.95;27235;1216;3054705;-76
2021/11/01 20:07:22;;;;;;;94.80;39.00;;;;;;;10.29;64.95;99479.80;27266;1217;3050843;-65
2021/11/01 21:26:25;;;;;;;95.60;39.20;;;;;;;10.78;65.23;99422.24;27252;1216;3048947;-66
2021/11/01 21:28:54;;;;;;;85.40;36.60;;;;;;;10.60;65.60;99405.95;27307;1216;3052262;-66
2021/11/01 21:31:23;;;;;;;86.90;39.30;;;;;;;10.41;66.20;99401.85;27233;1212;3026254;-74
2021/11/01 21:33:55;;;;;;;93.20;40.90;;;;;;;10.27;66.80;99406.35;27212;1216;3049411;-65
2021/11/01 21:36:25;;;;;;;85.80;38.90;;;;;;;10.17;67.25;99397.15;27268;1216;3026325;-74
2021/11/01 21:38:55;;;;;;;96.60;38.80;;;;;;;10.04;67.59;99391.80;27254;1209;3025889;-72
2021/11/01 21:41:26;;;;;;;91.30;39.50;;;;;;;9.96;68.06;99394.75;27230;1216;3051334;-74
2021/11/01 21:43:55;;;;;;;85.20;40.10;;;;;;;9.88;68.41;99387.51;27236;1216;3026144;-73
2021/11/01 21:46:24;;;;;;;73.70;32.00;;;;;;;9.88;68.41;99385.95;27264;1216;3027768;-71
2021/11/01 21:48:53;;;;;;;79.60;32.50;;;;;;;10.34;67.48;99387.20;27262;1216;3049142;-69
2021/11/01 21:51:22;;;;;;;79.00;35.30;;;;;;;10.91;65.61;99386.01;27190;1216;3028819;-70
2021/11/01 21:54:05;;;;;;;84.60;37.70;;;;;;;10.96;64.90;99387.80;27272;1216;3026299;-69
2021/11/01 21:56:34;;;;;;;94.80;40.50;;;;;;;10.83;65.36;99383.73;27229;1218;3047969;-67
2021/11/01 21:59:45;;;;;;;99.20;41.30;;;;;;;10.72;65.74;99375.64;27222;1216;3027358;-74
2021/11/01 22:18:54;;;;;;;89.40;35.90;;;;;;;9.80;68.95;99344.03;27249;1216;3052218;-67
2021/11/01 22:21:30;;;;;;;74.20;33.50;;;;;;;10.53;67.19;99344.38;27212;1216;3052685;-75
2021/11/01 22:42:53;;;;;;;100.30;46.40;;;;;;;9.92;68.76;99316.05;27184;1216;3026132;-69
2021/11/01 22:56:35;;;;;;;108.50;43.60;;;;;;;11.02;66.25;99298.59;27227;1216;3054193;-64
2021/11/01 22:59:05;;;;;;;99.50;43.30;;;;;;;11.02;66.01;99303.48;27214;1216;3052111;-65
2021/11/01 23:01:39;;;;;;;111.60;45.00;;;;;;;10.85;66.31;99311.92;27228;1216;3026101;-66
2021/11/01 23:04:26;;;;;;;107.20;46.60;;;;;;;10.61;67.18;99310.24;27312;1216;3048887;-68
2021/11/01 23:32:19;;;;;;;102.90;44.70;;;;;;;10.81;68.38;99275.89;27307;1216;3050650;-66
2021/11/01 23:34:49;;;;;;;100.10;43.40;;;;;;;10.68;68.88;99268.52;27211;1216;3027740;-68
2021/11/01 23:37:19;;;;;;;88.80;40.90;;;;;;;10.59;69.25;99259.98;27253;1216;3052527;-64
2021/11/01 23:39:49;;;;;;;95.00;41.90;;;;;;;10.48;69.94;99259.46;27221;1211;3026422;-69
2021/11/01 23:42:17;;;;;;;81.10;34.20;;;;;;;10.38;70.38;99250.64;27223;1216;3026851;-67
2021/11/01 23:44:46;;;;;;;72.40;32.60;;;;;;;10.71;70.37;99244.63;27280;1216;3055261;-67
2021/11/01 23:47:16;;;;;;;81.30;38.10;;;;;;;11.30;68.68;99231.86;27239;1209;3027375;-70
2021/11/01 23:49:45;;;;;;;88.60;39.00;;;;;;;11.50;67.85;99231.24;27221;1216;3025834;-63
2021/11/01 23:52:16;;;;;;;84.00;39.80;;;;;;;11.30;68.09;99228.55;27225;1216;3054669;-69
2021/11/01 23:54:45;;;;;;;88.60;40.00;;;;;;;10.98;68.96;99225.02;27236;1216;3028361;-68
2021/11/01 23:57:15;;;;;;;91.40;40.00;;;;;;;10.85;69.38;99225.36;27248;1216;3028482;-70
2021/11/01 23:59:45;;;;;;;88.80;40.80;;;;;;;10.75;69.73;99227.60;27264;1216;3053985;-65
